createdAt,value
2023-04-09T00:00:11.432Z,0.53
2023-04-09T00:01:11.467Z,0.52
2023-04-09T00:02:11.515Z,0.53
2023-04-09T00:03:11.684Z,0.52
2023-04-09T00:04:11.618Z,0.52
2023-04-09T00:05:11.658Z,0.52
2023-04-09T00:06:11.720Z,0.53
2023-04-09T00:07:11.798Z,0.53
2023-04-09T00:08:11.849Z,0.54
2023-04-09T00:09:11.917Z,0.52
2023-04-09T00:10:11.969Z,0.52
2023-04-09T00:11:12.020Z,0.52
2023-04-09T00:12:12.061Z,0.52
2023-04-09T00:13:12.109Z,0.53
2023-04-09T00:14:12.175Z,0.54
2023-04-09T00:15:20.624Z,0.52
2023-04-09T00:16:13.249Z,0.52
2023-04-09T00:17:12.228Z,0.52
2023-04-09T00:18:12.226Z,0.52
2023-04-09T00:19:12.207Z,0.52
2023-04-09T00:20:12.208Z,0.52
2023-04-09T00:21:12.180Z,0.53
2023-04-09T00:22:12.189Z,0.52
2023-04-09T00:23:12.934Z,0.52
2023-04-09T00:24:12.193Z,0.53
2023-04-09T00:25:12.154Z,0.52
2023-04-09T00:26:12.185Z,0.53
2023-04-09T00:27:12.205Z,0.53
2023-04-09T00:28:12.271Z,0.52
2023-04-09T00:29:12.325Z,0.53
2023-04-09T00:30:12.386Z,0.53
2023-04-09T00:31:12.452Z,0.54
2023-04-09T00:32:12.495Z,0.53
2023-04-09T00:33:12.516Z,0.54
2023-04-09T00:34:12.558Z,0.53
2023-04-09T00:35:12.597Z,0.54
2023-04-09T00:36:12.679Z,0.53
2023-04-09T00:37:12.701Z,0.53
2023-04-09T00:38:12.749Z,0.52
2023-04-09T00:39:12.804Z,0.53
2023-04-09T00:40:12.859Z,0.52
2023-04-09T00:41:12.902Z,0.52
2023-04-09T00:42:12.956Z,0.53
2023-04-09T00:43:13.006Z,0.54
2023-04-09T00:44:13.052Z,0.53
2023-04-09T00:45:13.110Z,0.53
2023-04-09T00:46:13.232Z,0.53
2023-04-09T00:47:13.213Z,0.52
2023-04-09T00:48:13.249Z,0.52
2023-04-09T00:49:13.337Z,0.53
2023-04-09T00:50:13.389Z,0.51
2023-04-09T00:51:13.425Z,0.52
2023-04-09T00:52:13.475Z,0.52
2023-04-09T00:53:13.516Z,0.52
2023-04-09T00:54:13.558Z,0.53
2023-04-09T00:55:13.643Z,0.53
2023-04-09T00:56:13.695Z,0.52
2023-04-09T00:57:13.730Z,0.51
2023-04-09T00:58:13.780Z,0.53
2023-04-09T00:59:13.846Z,0.53
2023-04-09T01:00:13.872Z,0.53
2023-04-09T01:01:13.944Z,0.52
2023-04-09T01:02:14.056Z,0.53
2023-04-09T01:03:14.081Z,0.51
2023-04-09T01:04:14.085Z,0.52
2023-04-09T01:05:14.112Z,0.53
2023-04-09T01:06:14.239Z,0.52
2023-04-09T01:07:14.210Z,0.52
2023-04-09T01:08:14.258Z,0.52
2023-04-09T01:09:14.295Z,0.52
2023-04-09T01:10:14.343Z,0.52
2023-04-09T01:11:14.419Z,0.51
2023-04-09T01:12:14.419Z,0.51
2023-04-09T01:13:14.503Z,0.52
2023-04-09T01:14:14.535Z,0.52
2023-04-09T01:15:14.573Z,0.51
2023-04-09T01:16:14.655Z,0.52
2023-04-09T01:17:14.640Z,0.53
2023-04-09T01:18:14.692Z,0.53
2023-04-09T01:19:14.761Z,0.52
2023-04-09T01:20:14.783Z,0.53
2023-04-09T01:21:14.823Z,0.52
2023-04-09T01:22:14.867Z,0.53
2023-04-09T01:23:14.903Z,0.54
2023-04-09T01:24:14.953Z,0.52
2023-04-09T01:25:15.022Z,0.52
2023-04-09T01:26:15.053Z,0.52
2023-04-09T01:27:15.071Z,0.54
2023-04-09T01:28:15.122Z,0.52
2023-04-09T01:29:15.162Z,0.52
2023-04-09T01:30:15.202Z,0.53
2023-04-09T01:31:15.357Z,0.53
2023-04-09T01:32:15.300Z,0.53
2023-04-09T01:33:15.358Z,0.53
2023-04-09T01:34:15.428Z,0.52
2023-04-09T01:35:15.454Z,0.52
2023-04-09T01:36:15.503Z,0.54
2023-04-09T01:37:15.542Z,0.53
2023-04-09T01:38:15.602Z,0.51
2023-04-09T01:39:15.632Z,0.51
2023-04-09T01:40:15.716Z,0.51
2023-04-09T01:41:15.811Z,0.51
2023-04-09T01:42:15.795Z,0.53
2023-04-09T01:43:15.872Z,0.54
2023-04-09T01:44:15.916Z,0.52
2023-04-09T01:45:15.935Z,0.50
2023-04-09T01:46:16.025Z,0.51
2023-04-09T01:47:16.046Z,0.51
2023-04-09T01:48:16.071Z,0.53
2023-04-09T01:49:16.153Z,0.51
2023-04-09T01:50:16.160Z,0.52
2023-04-09T01:51:16.238Z,0.52
2023-04-09T01:52:16.261Z,0.52
2023-04-09T01:53:18.322Z,0.53
2023-04-09T01:54:16.386Z,0.53
2023-04-09T01:55:16.445Z,0.52
2023-04-09T01:56:16.484Z,0.54
2023-04-09T01:57:16.541Z,0.54
2023-04-09T01:58:16.565Z,0.52
2023-04-09T01:59:16.649Z,0.53
2023-04-09T02:00:16.693Z,0.52
2023-04-09T02:01:16.741Z,0.52
2023-04-09T02:02:16.887Z,0.52
2023-04-09T02:03:17.165Z,0.52
2023-04-09T02:04:16.908Z,0.53
2023-04-09T02:05:16.954Z,0.53
2023-04-09T02:06:17.017Z,0.52
2023-04-09T02:07:17.028Z,0.51
2023-04-09T02:08:17.082Z,0.52
2023-04-09T02:09:17.103Z,0.52
2023-04-09T02:10:17.144Z,0.52
2023-04-09T02:11:17.201Z,0.52
2023-04-09T02:12:17.257Z,0.51
2023-04-09T02:13:17.316Z,0.53
2023-04-09T02:14:17.391Z,0.52
2023-04-09T02:15:17.425Z,0.52
2023-04-09T02:16:17.583Z,0.53
2023-04-09T02:17:17.507Z,0.51
2023-04-09T02:18:17.558Z,0.52
2023-04-09T02:19:17.584Z,0.53
2023-04-09T02:20:17.659Z,0.51
2023-04-09T02:21:17.701Z,0.52
2023-04-09T02:22:17.780Z,0.51
2023-04-09T02:23:17.792Z,0.53
2023-04-09T02:24:17.872Z,0.52
2023-04-09T02:25:17.891Z,0.53
2023-04-09T02:26:17.934Z,0.52
2023-04-09T02:27:17.974Z,0.52
2023-04-09T02:28:18.037Z,0.52
2023-04-09T02:29:18.053Z,0.52
2023-04-09T02:30:18.139Z,0.51
2023-04-09T02:31:18.196Z,0.53
2023-04-09T02:32:18.230Z,0.52
2023-04-09T02:33:18.251Z,0.52
2023-04-09T02:34:18.305Z,0.51
2023-04-09T02:35:18.354Z,0.52
2023-04-09T02:36:18.381Z,0.52
2023-04-09T02:37:18.416Z,0.51
2023-04-09T02:38:18.428Z,0.52
2023-04-09T02:39:18.500Z,0.51
2023-04-09T02:40:18.539Z,0.52
2023-04-09T02:41:18.596Z,0.52
2023-04-09T02:42:18.699Z,0.53
2023-04-09T02:43:18.662Z,0.52
2023-04-09T02:44:18.718Z,0.52
2023-04-09T02:45:18.743Z,0.51
2023-04-09T02:46:18.861Z,0.53
2023-04-09T02:47:18.889Z,0.52
2023-04-09T02:48:18.923Z,0.54
2023-04-09T02:49:18.931Z,0.52
2023-04-09T02:50:18.987Z,0.52
2023-04-09T02:51:19.017Z,0.53
2023-04-09T02:52:19.079Z,0.53
2023-04-09T02:53:19.118Z,0.52
2023-04-09T02:54:19.200Z,0.52
2023-04-09T02:55:19.197Z,0.52
2023-04-09T02:56:19.234Z,0.51
2023-04-09T02:57:19.276Z,0.51
2023-04-09T02:58:19.322Z,0.53
2023-04-09T02:59:19.367Z,0.52
2023-04-09T03:00:19.424Z,0.52
2023-04-09T03:01:19.484Z,0.52
2023-04-09T03:02:19.742Z,0.53
2023-04-09T03:03:19.731Z,0.52
2023-04-09T03:04:19.750Z,0.53
2023-04-09T03:05:19.684Z,0.54
2023-04-09T03:06:19.708Z,0.51
2023-04-09T03:07:19.737Z,0.53
2023-04-09T03:08:19.803Z,0.52
2023-04-09T03:09:19.833Z,0.54
2023-04-09T03:10:19.880Z,0.52
2023-04-09T03:11:19.919Z,0.52
2023-04-09T03:12:19.949Z,0.53
2023-04-09T03:13:20.001Z,0.53
2023-04-09T03:14:20.044Z,0.53
2023-04-09T03:15:20.087Z,0.53
2023-04-09T03:16:20.246Z,0.53
2023-04-09T03:17:20.172Z,0.52
2023-04-09T03:18:20.235Z,0.52
2023-04-09T03:19:20.283Z,0.52
2023-04-09T03:20:20.326Z,0.53
2023-04-09T03:21:20.358Z,0.54
2023-04-09T03:22:20.405Z,0.52
2023-04-09T03:23:20.472Z,0.51
2023-04-09T03:24:20.520Z,0.53
2023-04-09T03:25:20.608Z,0.52
2023-04-09T03:26:20.627Z,0.52
2023-04-09T03:27:20.686Z,0.53
2023-04-09T03:28:20.712Z,0.53
2023-04-09T03:29:20.792Z,0.51
2023-04-09T03:30:20.835Z,0.53
2023-04-09T03:31:20.894Z,0.52
2023-04-09T03:32:20.897Z,0.52
2023-04-09T03:33:20.938Z,0.53
2023-04-09T03:34:21.031Z,0.53
2023-04-09T03:35:21.021Z,0.52
2023-04-09T03:36:21.100Z,0.51
2023-04-09T03:37:21.153Z,0.52
2023-04-09T03:38:21.197Z,0.52
2023-04-09T03:39:21.277Z,0.51
2023-04-09T03:40:21.293Z,0.53
2023-04-09T03:41:21.350Z,0.53
2023-04-09T03:42:21.404Z,0.51
2023-04-09T03:43:21.425Z,0.51
2023-04-09T03:44:21.512Z,0.52
2023-04-09T03:45:21.554Z,0.52
2023-04-09T03:46:21.616Z,0.53
2023-04-09T03:47:21.684Z,0.52
2023-04-09T03:48:21.700Z,0.53
2023-04-09T03:49:21.761Z,0.52
2023-04-09T03:50:21.792Z,0.53
2023-04-09T03:51:21.842Z,0.53
2023-04-09T03:52:21.909Z,0.51
2023-04-09T03:53:21.975Z,0.52
2023-04-09T03:54:21.982Z,0.52
2023-04-09T03:55:22.053Z,0.51
2023-04-09T03:56:22.102Z,0.52
2023-04-09T03:57:22.121Z,0.53
2023-04-09T03:58:22.174Z,0.52
2023-04-09T03:59:22.214Z,0.52
2023-04-09T04:00:22.833Z,0.52
2023-04-09T04:01:22.337Z,0.52
2023-04-09T04:02:22.562Z,0.53
2023-04-09T04:03:22.539Z,0.51
2023-04-09T04:04:23.873Z,0.51
2023-04-09T04:05:22.496Z,0.54
2023-04-09T04:06:22.551Z,0.53
2023-04-09T04:07:22.580Z,0.51
2023-04-09T04:08:22.622Z,0.52
2023-04-09T04:09:22.662Z,0.53
2023-04-09T04:10:22.709Z,0.52
2023-04-09T04:11:22.766Z,0.51
2023-04-09T04:12:22.777Z,0.52
2023-04-09T04:13:22.929Z,0.53
2023-04-09T04:14:22.925Z,0.52
2023-04-09T04:15:22.947Z,0.53
2023-04-09T04:16:23.098Z,0.51
2023-04-09T04:17:23.079Z,0.52
2023-04-09T04:18:23.086Z,0.52
2023-04-09T04:19:23.168Z,0.52
2023-04-09T04:20:23.206Z,0.52
2023-04-09T04:21:23.286Z,0.51
2023-04-09T04:22:25.577Z,0.52
2023-04-09T04:23:23.301Z,0.52
2023-04-09T04:24:23.307Z,0.52
2023-04-09T04:25:23.282Z,0.52
2023-04-09T04:26:23.315Z,0.53
2023-04-09T04:27:23.299Z,0.52
2023-04-09T04:28:23.282Z,0.52
2023-04-09T04:29:23.281Z,0.52
2023-04-09T04:30:23.270Z,0.51
2023-04-09T04:31:23.306Z,0.52
2023-04-09T04:32:23.315Z,0.52
2023-04-09T04:33:23.215Z,0.53
2023-04-09T04:34:23.249Z,0.52
2023-04-09T04:35:23.257Z,0.52
2023-04-09T04:36:23.205Z,0.53
2023-04-09T04:37:23.230Z,0.52
2023-04-09T04:38:23.222Z,0.52
2023-04-09T04:39:23.185Z,0.52
2023-04-09T04:40:23.215Z,0.52
2023-04-09T04:41:23.182Z,0.52
2023-04-09T04:42:23.175Z,0.52
2023-04-09T04:43:23.194Z,0.52
2023-04-09T04:44:23.167Z,0.52
2023-04-09T04:45:23.143Z,0.54
2023-04-09T04:46:23.214Z,0.53
2023-04-09T04:47:23.264Z,0.53
2023-04-09T04:48:23.117Z,0.52
2023-04-09T04:49:23.135Z,0.52
2023-04-09T04:50:23.135Z,0.52
2023-04-09T04:51:23.094Z,0.52
2023-04-09T04:52:23.107Z,0.53
2023-04-09T04:53:23.092Z,0.53
2023-04-09T04:54:23.097Z,0.53
2023-04-09T04:55:23.064Z,0.53
2023-04-09T04:56:23.093Z,0.53
2023-04-09T04:57:23.058Z,0.53
2023-04-09T04:58:23.057Z,0.52
2023-04-09T04:59:23.047Z,0.53
2023-04-09T05:00:23.034Z,0.53
2023-04-09T05:01:23.076Z,0.53
2023-04-09T05:02:23.243Z,0.51
2023-04-09T05:03:23.268Z,0.53
2023-04-09T05:04:23.017Z,0.52
2023-04-09T05:05:22.981Z,0.52
2023-04-09T05:06:23.010Z,0.54
2023-04-09T05:07:23.047Z,0.53
2023-04-09T05:08:23.129Z,0.53
2023-04-09T05:09:23.113Z,0.51
2023-04-09T05:10:23.159Z,0.53
2023-04-09T05:11:23.208Z,0.52
2023-04-09T05:12:23.275Z,0.52
2023-04-09T05:13:23.317Z,0.52
2023-04-09T05:14:23.357Z,0.51
2023-04-09T05:15:23.405Z,0.51
2023-04-09T05:16:23.460Z,0.51
2023-04-09T05:17:23.497Z,0.53
2023-04-09T05:18:23.560Z,0.52
2023-04-09T05:19:23.613Z,0.52
2023-04-09T05:20:23.664Z,0.51
2023-04-09T05:21:23.689Z,0.52
2023-04-09T05:22:23.756Z,0.53
2023-04-09T05:23:23.805Z,0.53
2023-04-09T05:24:23.823Z,0.52
2023-04-09T05:25:23.894Z,0.54
2023-04-09T05:26:23.930Z,0.52
2023-04-09T05:27:23.992Z,0.52
2023-04-09T05:28:24.043Z,0.53
2023-04-09T05:29:24.090Z,0.53
2023-04-09T05:30:24.138Z,0.52
2023-04-09T05:31:24.196Z,0.53
2023-04-09T05:32:24.259Z,0.51
2023-04-09T05:33:24.261Z,0.52
2023-04-09T05:34:24.301Z,0.51
2023-04-09T05:35:24.336Z,0.52
2023-04-09T05:36:24.426Z,0.53
2023-04-09T05:37:24.444Z,0.52
2023-04-09T05:38:24.476Z,0.51
2023-04-09T05:39:24.550Z,0.52
2023-04-09T05:40:24.609Z,0.51
2023-04-09T05:41:24.628Z,0.54
2023-04-09T05:42:24.708Z,0.53
2023-04-09T05:43:24.742Z,0.52
2023-04-09T05:44:24.794Z,0.52
2023-04-09T05:45:24.830Z,0.53
2023-04-09T05:46:24.887Z,0.54
2023-04-09T05:47:24.968Z,0.54
2023-04-09T05:48:24.985Z,0.52
2023-04-09T05:49:25.024Z,0.53
2023-04-09T05:50:25.071Z,0.53
2023-04-09T05:51:25.200Z,0.53
2023-04-09T05:52:25.168Z,0.53
2023-04-09T05:53:25.217Z,0.52
2023-04-09T05:54:25.263Z,0.54
2023-04-09T05:55:25.307Z,0.52
2023-04-09T05:56:25.377Z,0.53
2023-04-09T05:57:25.439Z,0.53
2023-04-09T05:58:25.425Z,0.53
2023-04-09T05:59:25.504Z,0.54
2023-04-09T06:00:25.547Z,0.53
2023-04-09T06:01:25.593Z,0.52
2023-04-09T06:02:25.844Z,0.52
2023-04-09T06:03:25.802Z,0.51
2023-04-09T06:04:25.830Z,0.53
2023-04-09T06:05:25.776Z,0.51
2023-04-09T06:06:25.840Z,0.52
2023-04-09T06:07:25.869Z,0.52
2023-04-09T06:08:25.912Z,0.52
2023-04-09T06:09:25.978Z,0.54
2023-04-09T06:10:26.014Z,0.51
2023-04-09T06:11:26.089Z,0.52
2023-04-09T06:12:26.139Z,0.52
2023-04-09T06:13:26.199Z,0.52
2023-04-09T06:14:26.280Z,0.52
2023-04-09T06:15:26.319Z,0.52
2023-04-09T06:16:26.371Z,0.53
2023-04-09T06:17:26.434Z,0.52
2023-04-09T06:18:26.475Z,0.51
2023-04-09T06:19:26.591Z,0.53
2023-04-09T06:20:26.594Z,0.51
2023-04-09T06:21:26.655Z,0.50
2023-04-09T06:22:26.709Z,0.51
2023-04-09T06:23:26.791Z,0.54
2023-04-09T06:24:26.840Z,0.52
2023-04-09T06:25:26.889Z,0.52
2023-04-09T06:26:26.948Z,0.52
2023-04-09T06:27:27.012Z,0.51
2023-04-09T06:28:27.037Z,0.53
2023-04-09T06:29:27.086Z,0.53
2023-04-09T06:30:27.116Z,0.53
2023-04-09T06:31:27.302Z,0.53
2023-04-09T06:32:27.277Z,0.52
2023-04-09T06:33:27.381Z,0.53
2023-04-09T06:34:27.378Z,0.52
2023-04-09T06:35:27.417Z,0.54
2023-04-09T06:36:27.459Z,0.52
2023-04-09T06:37:27.512Z,0.52
2023-04-09T06:38:27.549Z,0.51
2023-04-09T06:39:27.647Z,0.51
2023-04-09T06:40:27.730Z,0.53
2023-04-09T06:41:27.738Z,0.52
2023-04-09T06:42:27.795Z,0.51
2023-04-09T06:43:27.845Z,0.52
2023-04-09T06:44:27.896Z,0.52
2023-04-09T06:45:28.016Z,0.53
2023-04-09T06:46:28.074Z,0.53
2023-04-09T06:47:28.084Z,0.53
2023-04-09T06:48:28.107Z,0.53
2023-04-09T06:49:28.188Z,0.53
2023-04-09T06:50:28.244Z,0.53
2023-04-09T06:51:28.293Z,0.52
2023-04-09T06:52:28.306Z,0.51
2023-04-09T06:53:28.414Z,0.52
2023-04-09T06:54:28.464Z,0.53
2023-04-09T06:55:28.506Z,0.51
2023-04-09T06:56:28.554Z,0.52
2023-04-09T06:57:28.604Z,0.51
2023-04-09T06:58:28.644Z,0.53
2023-04-09T06:59:28.943Z,0.52
2023-04-09T07:00:28.788Z,0.52
2023-04-09T07:01:28.856Z,0.51
2023-04-09T07:02:29.028Z,0.52
2023-04-09T07:03:29.033Z,0.52
2023-04-09T07:04:29.087Z,0.51
2023-04-09T07:05:29.061Z,0.53
2023-04-09T07:06:29.118Z,0.50
2023-04-09T07:07:29.140Z,0.52
2023-04-09T07:08:29.188Z,0.51
2023-04-09T07:09:29.237Z,0.51
2023-04-09T07:10:29.307Z,0.53
2023-04-09T07:11:29.339Z,0.51
2023-04-09T07:12:29.426Z,0.54
2023-04-09T07:13:29.514Z,0.52
2023-04-09T07:14:29.533Z,0.51
2023-04-09T07:15:29.548Z,0.52
2023-04-09T07:16:29.682Z,0.52
2023-04-09T07:17:29.704Z,0.51
2023-04-09T07:18:29.708Z,0.52
2023-04-09T07:19:29.878Z,0.53
2023-04-09T07:20:29.807Z,0.51
2023-04-09T07:21:29.844Z,0.54
2023-04-09T07:22:29.899Z,0.51
2023-04-09T07:23:29.961Z,0.52
2023-04-09T07:24:30.040Z,0.53
2023-04-09T07:25:30.083Z,0.51
2023-04-09T07:26:30.118Z,0.52
2023-04-09T07:27:30.206Z,0.52
2023-04-09T07:28:30.227Z,0.52
2023-04-09T07:29:30.276Z,0.53
2023-04-09T07:30:30.316Z,0.53
2023-04-09T07:31:30.391Z,0.52
2023-04-09T07:32:30.494Z,0.53
2023-04-09T07:33:30.490Z,0.52
2023-04-09T07:34:30.523Z,0.52
2023-04-09T07:35:30.561Z,0.51
2023-04-09T07:36:30.769Z,0.52
2023-04-09T07:37:30.669Z,0.52
2023-04-09T07:38:30.721Z,0.53
2023-04-09T07:39:30.756Z,0.51
2023-04-09T07:40:30.807Z,0.53
2023-04-09T07:41:30.859Z,0.52
2023-04-09T07:42:30.933Z,0.52
2023-04-09T07:43:30.982Z,0.51
2023-04-09T07:44:31.042Z,0.52
2023-04-09T07:45:31.053Z,0.52
2023-04-09T07:46:31.150Z,0.53
2023-04-09T07:47:31.195Z,0.52
2023-04-09T07:48:31.305Z,0.52
2023-04-09T07:49:31.295Z,0.51
2023-04-09T07:50:31.348Z,0.52
2023-04-09T07:51:31.380Z,0.52
2023-04-09T07:52:31.424Z,0.53
2023-04-09T07:53:31.517Z,0.52
2023-04-09T07:54:31.602Z,0.53
2023-04-09T07:55:31.606Z,0.52
2023-04-09T07:56:31.671Z,0.52
2023-04-09T07:57:31.732Z,0.52
2023-04-09T07:58:31.789Z,0.53
2023-04-09T07:59:31.895Z,0.52
2023-04-09T08:00:31.891Z,0.53
2023-04-09T08:01:31.975Z,0.52
2023-04-09T08:02:32.175Z,0.51
2023-04-09T08:03:32.300Z,0.51
2023-04-09T08:04:32.231Z,0.53
2023-04-09T08:05:32.194Z,0.52
2023-04-09T08:06:32.232Z,0.53
2023-04-09T08:07:32.306Z,0.52
2023-04-09T08:08:32.383Z,0.52
2023-04-09T08:09:32.391Z,0.52
2023-04-09T08:10:32.455Z,0.52
2023-04-09T08:11:32.529Z,0.52
2023-04-09T08:12:32.592Z,0.53
2023-04-09T08:13:32.626Z,0.54
2023-04-09T08:14:32.691Z,0.51
2023-04-09T08:15:32.734Z,0.53
2023-04-09T08:16:32.829Z,0.52
2023-04-09T08:17:32.895Z,0.52
2023-04-09T08:18:32.852Z,0.52
2023-04-09T08:19:32.894Z,0.51
2023-04-09T08:20:32.970Z,0.51
2023-04-09T08:21:33.018Z,0.52
2023-04-09T08:22:33.062Z,0.52
2023-04-09T08:23:33.165Z,0.53
2023-04-09T08:24:33.211Z,0.51
2023-04-09T08:25:33.241Z,0.51
2023-04-09T08:26:33.294Z,0.52
2023-04-09T08:27:33.352Z,0.52
2023-04-09T08:28:33.382Z,0.54
2023-04-09T08:29:33.443Z,0.53
2023-04-09T08:30:33.480Z,0.53
2023-04-09T08:31:33.576Z,0.53
2023-04-09T08:32:33.666Z,0.51
2023-04-09T08:33:33.632Z,0.52
2023-04-09T08:34:33.666Z,0.53
2023-04-09T08:35:33.710Z,0.51
2023-04-09T08:36:33.779Z,0.52
2023-04-09T08:37:33.797Z,0.51
2023-04-09T08:38:33.844Z,0.52
2023-04-09T08:39:33.934Z,0.52
2023-04-09T08:40:33.959Z,0.50
2023-04-09T08:41:34.014Z,0.52
2023-04-09T08:42:34.049Z,0.51
2023-04-09T08:43:52.502Z,0.51
2023-04-09T08:44:35.101Z,0.52
2023-04-09T08:45:34.110Z,0.52
2023-04-09T08:46:34.080Z,0.51
2023-04-09T08:47:34.132Z,0.52
2023-04-09T08:48:34.163Z,0.51
2023-04-09T08:49:34.064Z,0.52
2023-04-09T08:50:34.060Z,0.53
2023-04-09T08:51:34.027Z,0.51
2023-04-09T08:52:34.040Z,0.52
2023-04-09T08:53:34.044Z,0.52
2023-04-09T08:54:34.096Z,0.50
2023-04-09T08:55:34.010Z,0.51
2023-04-09T08:56:34.047Z,0.52
2023-04-09T08:57:34.094Z,0.51
2023-04-09T08:58:34.141Z,0.52
2023-04-09T08:59:34.197Z,0.51
2023-04-09T09:00:34.239Z,0.52
2023-04-09T09:01:34.420Z,0.51
2023-04-09T09:02:34.423Z,0.50
2023-04-09T09:03:34.421Z,0.51
2023-04-09T09:04:34.425Z,0.51
2023-04-09T09:05:34.448Z,0.53
2023-04-09T09:06:34.487Z,0.51
2023-04-09T09:07:34.496Z,0.52
2023-04-09T09:08:34.585Z,0.51
2023-04-09T09:09:34.575Z,0.51
2023-04-09T09:10:34.614Z,0.52
2023-04-09T09:11:34.694Z,0.51
2023-04-09T09:12:34.713Z,0.50
2023-04-09T09:13:34.737Z,0.51
2023-04-09T09:14:34.812Z,0.50
2023-04-09T09:15:34.859Z,0.51
2023-04-09T09:16:34.983Z,0.51
2023-04-09T09:17:34.964Z,0.52
2023-04-09T09:18:34.983Z,0.51
2023-04-09T09:19:35.068Z,0.51
2023-04-09T09:20:35.080Z,0.52
2023-04-09T09:21:35.199Z,0.51
2023-04-09T09:22:35.156Z,0.52
2023-04-09T09:23:35.204Z,0.52
2023-04-09T09:24:35.243Z,0.51
2023-04-09T09:25:35.294Z,0.51
2023-04-09T09:26:35.331Z,0.51
2023-04-09T09:27:35.357Z,0.51
2023-04-09T09:28:35.385Z,0.52
2023-04-09T09:29:35.463Z,0.52
2023-04-09T09:30:35.513Z,0.51
2023-04-09T09:31:35.569Z,0.52
2023-04-09T09:32:35.605Z,0.53
2023-04-09T09:33:35.630Z,0.51
2023-04-09T09:34:35.648Z,0.51
2023-04-09T09:35:35.719Z,0.51
2023-04-09T09:36:35.707Z,0.50
2023-04-09T09:37:35.791Z,0.51
2023-04-09T09:38:35.806Z,0.52
2023-04-09T09:39:35.842Z,0.51
2023-04-09T09:40:35.860Z,0.51
2023-04-09T09:41:35.924Z,0.51
2023-04-09T09:42:35.970Z,0.51
2023-04-09T09:43:35.985Z,0.50
2023-04-09T09:44:36.072Z,0.51
2023-04-09T09:45:36.108Z,0.51
2023-04-09T09:46:36.239Z,0.52
2023-04-09T09:47:36.192Z,0.51
2023-04-09T09:48:36.217Z,0.52
2023-04-09T09:49:36.257Z,0.52
2023-04-09T09:50:36.292Z,0.52
2023-04-09T09:51:36.336Z,0.50
2023-04-09T09:52:36.406Z,0.52
2023-04-09T09:53:36.429Z,0.52
2023-04-09T09:54:36.433Z,0.51
2023-04-09T09:55:36.468Z,0.52
2023-04-09T09:56:36.483Z,0.51
2023-04-09T09:57:36.545Z,0.51
2023-04-09T09:58:36.594Z,0.52
2023-04-09T09:59:36.591Z,0.50
2023-04-09T10:00:36.644Z,0.52
2023-04-09T10:01:36.862Z,0.52
2023-04-09T10:02:36.820Z,0.52
2023-04-09T10:03:36.729Z,0.51
2023-04-09T10:04:36.851Z,0.52
2023-04-09T10:05:36.789Z,0.52
2023-04-09T10:06:36.821Z,0.52
2023-04-09T10:07:36.884Z,0.50
2023-04-09T10:08:36.886Z,0.51
2023-04-09T10:09:36.917Z,0.51
2023-04-09T10:10:36.964Z,0.51
2023-04-09T10:11:37.046Z,0.51
2023-04-09T10:12:37.034Z,0.52
2023-04-09T10:13:37.090Z,0.51
2023-04-09T10:14:37.086Z,0.52
2023-04-09T10:15:37.157Z,0.52
2023-04-09T10:16:37.168Z,0.53
2023-04-09T10:17:37.232Z,0.51
2023-04-09T10:18:37.234Z,0.53
2023-04-09T10:19:37.295Z,0.53
2023-04-09T10:20:37.277Z,0.53
2023-04-09T10:21:37.347Z,0.51
2023-04-09T10:22:37.374Z,0.52
2023-04-09T10:23:37.371Z,0.52
2023-04-09T10:24:37.424Z,0.51
2023-04-09T10:25:37.446Z,0.51
2023-04-09T10:26:37.482Z,0.52
2023-04-09T10:27:37.501Z,0.52
2023-04-09T10:28:37.532Z,0.52
2023-04-09T10:29:37.573Z,0.51
2023-04-09T10:30:37.624Z,0.51
2023-04-09T10:31:37.703Z,0.51
2023-04-09T10:32:37.739Z,0.51
2023-04-09T10:33:37.728Z,0.51
2023-04-09T10:34:37.747Z,0.51
2023-04-09T10:35:37.832Z,0.52
2023-04-09T10:36:37.803Z,0.51
2023-04-09T10:37:37.818Z,0.52
2023-04-09T10:38:37.890Z,0.52
2023-04-09T10:39:37.912Z,0.52
2023-04-09T10:40:37.912Z,0.52
2023-04-09T10:41:37.937Z,0.50
2023-04-09T10:42:37.994Z,0.50
2023-04-09T10:43:37.993Z,0.52
2023-04-09T10:44:38.077Z,0.52
2023-04-09T10:45:38.071Z,0.52
2023-04-09T10:46:38.127Z,0.50
2023-04-09T10:47:38.154Z,0.51
2023-04-09T10:48:38.145Z,0.50
2023-04-09T10:49:38.167Z,0.51
2023-04-09T10:50:38.199Z,0.52
2023-04-09T10:51:38.230Z,0.53
2023-04-09T10:52:38.250Z,0.52
2023-04-09T10:53:38.292Z,0.52
2023-04-09T10:54:38.319Z,0.54
2023-04-09T10:55:38.412Z,0.52
2023-04-09T10:56:38.375Z,0.52
2023-04-09T10:57:38.401Z,0.54
2023-04-09T10:58:38.382Z,0.53
2023-04-09T10:59:38.421Z,0.52
2023-04-09T11:00:38.487Z,0.52
2023-04-09T11:01:38.568Z,0.53
2023-04-09T11:02:38.757Z,0.54
2023-04-09T11:03:38.610Z,0.51
2023-04-09T11:04:38.647Z,0.52
2023-04-09T11:05:38.599Z,0.51
2023-04-09T11:06:38.642Z,0.51
2023-04-09T11:07:38.650Z,0.53
2023-04-09T11:08:38.804Z,0.53
2023-04-09T11:09:38.724Z,0.51
2023-04-09T11:10:38.768Z,0.52
2023-04-09T11:11:38.760Z,0.52
2023-04-09T11:12:38.800Z,0.51
2023-04-09T11:13:38.789Z,0.52
2023-04-09T11:14:38.836Z,0.51
2023-04-09T11:15:38.838Z,0.51
2023-04-09T11:16:38.897Z,0.52
2023-04-09T11:17:38.917Z,0.52
2023-04-09T11:18:38.927Z,0.53
2023-04-09T11:19:38.952Z,0.52
2023-04-09T11:20:38.964Z,0.52
2023-04-09T11:21:38.987Z,0.52
2023-04-09T11:22:40.001Z,0.53
2023-04-09T11:23:38.994Z,0.52
2023-04-09T11:24:39.019Z,0.52
2023-04-09T11:25:39.078Z,0.53
2023-04-09T11:26:39.078Z,0.53
2023-04-09T11:27:39.044Z,0.53
2023-04-09T11:28:39.106Z,0.51
2023-04-09T11:29:39.095Z,0.52
2023-04-09T11:30:39.117Z,0.53
2023-04-09T11:31:39.148Z,0.53
2023-04-09T11:32:39.205Z,0.54
2023-04-09T11:33:39.214Z,0.53
2023-04-09T11:34:39.229Z,0.53
2023-04-09T11:35:39.287Z,0.52
2023-04-09T11:36:39.263Z,0.52
2023-04-09T11:37:39.309Z,0.53
2023-04-09T11:38:39.301Z,0.53
2023-04-09T11:39:39.363Z,0.53
2023-04-09T11:40:39.383Z,0.52
2023-04-09T11:41:39.400Z,0.53
2023-04-09T11:42:39.394Z,0.52
2023-04-09T11:43:39.412Z,0.53
2023-04-09T11:44:39.467Z,0.54
2023-04-09T11:45:39.464Z,0.55
2023-04-09T11:46:39.495Z,0.53
2023-04-09T11:47:39.545Z,0.54
2023-04-09T11:48:39.519Z,0.54
2023-04-09T11:49:39.535Z,0.53
2023-04-09T11:50:39.574Z,0.54
2023-04-09T11:51:39.583Z,0.54
2023-04-09T11:52:39.596Z,0.55
2023-04-09T11:53:39.613Z,0.53
2023-04-09T11:54:39.696Z,0.54
2023-04-09T11:55:39.663Z,0.56
2023-04-09T11:56:39.682Z,0.54
2023-04-09T11:57:39.692Z,0.56
2023-04-09T11:58:39.722Z,0.55
2023-04-09T11:59:39.735Z,0.55
2023-04-09T12:00:39.749Z,0.55
2023-04-09T12:01:39.823Z,0.54
2023-04-09T12:02:39.956Z,0.56
2023-04-09T12:03:40.044Z,0.55
2023-04-09T12:04:39.943Z,0.55
2023-04-09T12:05:41.606Z,0.54
2023-04-09T12:06:39.860Z,0.55
2023-04-09T12:07:42.282Z,0.54
2023-04-09T12:08:39.861Z,0.54
2023-04-09T12:09:39.856Z,0.54
2023-04-09T12:10:39.859Z,0.54
2023-04-09T12:11:39.824Z,0.55
2023-04-09T12:12:39.823Z,0.54
2023-04-09T12:13:39.874Z,0.54
2023-04-09T12:14:39.814Z,0.53
2023-04-09T12:15:39.817Z,0.53
2023-04-09T12:16:39.862Z,0.53
2023-04-09T12:17:39.830Z,0.53
2023-04-09T12:18:39.814Z,0.54
2023-04-09T12:19:39.771Z,0.54
2023-04-09T12:20:39.827Z,0.55
2023-04-09T12:21:39.758Z,0.54
2023-04-09T12:22:39.793Z,0.54
2023-04-09T12:23:39.823Z,0.55
2023-04-09T12:24:39.778Z,0.55
2023-04-09T12:25:39.757Z,0.56
2023-04-09T12:26:39.728Z,0.56
2023-04-09T12:27:39.715Z,0.56
2023-04-09T12:28:39.748Z,0.56
2023-04-09T12:29:39.737Z,0.57
2023-04-09T12:30:39.709Z,0.58
2023-04-09T12:31:39.724Z,0.56
2023-04-09T12:32:39.782Z,0.57
2023-04-09T12:33:39.699Z,0.55
2023-04-09T12:34:39.702Z,0.55
2023-04-09T12:35:39.728Z,0.56
2023-04-09T12:36:39.683Z,0.56
2023-04-09T12:37:39.682Z,0.55
2023-04-09T12:38:39.654Z,0.56
2023-04-09T12:39:39.649Z,0.56
2023-04-09T12:40:39.673Z,0.56
2023-04-09T12:41:39.668Z,0.55
2023-04-09T12:42:39.621Z,0.55
2023-04-09T12:43:39.663Z,0.56
2023-04-09T12:44:39.638Z,0.54
2023-04-09T12:45:39.614Z,0.55
2023-04-09T12:46:39.611Z,0.56
2023-04-09T12:47:39.658Z,0.53
2023-04-09T12:48:39.637Z,0.54
2023-04-09T12:49:41.763Z,0.55
2023-04-09T12:50:39.874Z,0.56
2023-04-09T12:51:39.854Z,0.55
2023-04-09T12:52:39.843Z,0.55
2023-04-09T12:53:39.853Z,0.56
2023-04-09T12:54:39.874Z,0.55
2023-04-09T12:55:42.650Z,0.55
2023-04-09T12:56:39.958Z,0.55
2023-04-09T12:57:39.970Z,0.55
2023-04-09T12:58:39.961Z,0.55
2023-04-09T12:59:39.915Z,0.56
2023-04-09T13:00:39.922Z,0.55
2023-04-09T13:01:42.137Z,0.56
2023-04-09T13:02:40.215Z,0.56
2023-04-09T13:03:40.050Z,0.55
2023-04-09T13:04:40.074Z,0.56
2023-04-09T13:05:39.891Z,0.56
2023-04-09T13:06:39.873Z,0.57
2023-04-09T13:07:42.216Z,0.55
2023-04-09T13:08:39.874Z,0.55
2023-04-09T13:09:39.861Z,0.55
2023-04-09T13:10:39.883Z,0.56
2023-04-09T13:11:39.830Z,0.55
2023-04-09T13:12:39.851Z,0.55
2023-04-09T13:13:42.145Z,0.54
2023-04-09T13:14:39.847Z,0.54
2023-04-09T13:15:39.863Z,0.54
2023-04-09T13:16:39.861Z,0.54
2023-04-09T13:17:39.804Z,0.55
2023-04-09T13:18:39.813Z,0.54